This is the latest recevied weather packets stored in our database for station/object VK3MAK-1. If no packets are shown the sender has not sent any weather packets the latest 10 day(s).
| Time | Temp. | Humidity | Pressure | Rain* | Wind** | Luminosity | Snow |
|---|---|---|---|---|---|---|---|
| 1777537803 | 19.44° C | 41% | 1022.1 hPa | 0 mm | 1.79 m/s, 23° | - | - |
| 1777537203 | 19.44° C | 41% | 1022.1 hPa | 0 mm | 1.79 m/s, 23° | - | - |
| 1777536604 | 19.44° C | 41% | 1022.1 hPa | 0 mm | 1.79 m/s, 23° | - | - |
| 1777536016 | 20.56° C | 35% | 1022 hPa | 0 mm | 1.79 m/s, 338° | - | - |
| 1777535403 | 20.56° C | 35% | 1022 hPa | 0 mm | 1.79 m/s, 338° | - | - |
| 1777534803 | 20.56° C | 35% | 1022 hPa | 0 mm | 1.79 m/s, 338° | - | - |
| 1777534204 | 23.33° C | 29% | 1021.9 hPa | 0 mm | 3.13 m/s, 338° | - | - |
| 1777533604 | 23.33° C | 29% | 1021.9 hPa | 0 mm | 3.13 m/s, 338° | - | - |
| 1777533003 | 23.33° C | 29% | 1021.9 hPa | 0 mm | 3.13 m/s, 338° | - | - |
| 1777532410 | 23.89° C | 28% | 1022 hPa | 0 mm | 4.47 m/s, 338° | - | - |
| 1777531804 | 23.89° C | 28% | 1022 hPa | 0 mm | 4.47 m/s, 338° | - | - |
| 1777531204 | 23.89° C | 28% | 1022 hPa | 0 mm | 4.47 m/s, 338° | - | - |
| 1777530608 | 25° C | 24% | 1021.9 hPa | 0 mm | 6.26 m/s, 338° | - | - |
| 1777530003 | 25° C | 24% | 1021.9 hPa | 0 mm | 6.26 m/s, 338° | - | - |
| 1777529403 | 25° C | 24% | 1021.9 hPa | 0 mm | 6.26 m/s, 338° | - | - |
| 1777528803 | 25° C | 24% | 1022.1 hPa | 0 mm | 7.6 m/s, 338° | - | - |
| 1777528203 | 25° C | 24% | 1022.1 hPa | 0 mm | 7.6 m/s, 338° | - | - |
| 1777527603 | 25° C | 24% | 1022.1 hPa | 0 mm | 7.6 m/s, 338° | - | - |
| 1777527003 | 25.56° C | 25% | 1022.2 hPa | 0 mm | 6.71 m/s, 0° | - | - |
| 1777526403 | 25.56° C | 25% | 1022.2 hPa | 0 mm | 6.71 m/s, 0° | - | - |
| 1777525803 | 25.56° C | 25% | 1022.2 hPa | 0 mm | 6.71 m/s, 0° | - | - |
| 1777525203 | 25.56° C | 24% | 1022.3 hPa | 0 mm | 7.15 m/s, 338° | - | - |
| 1777524604 | 25.56° C | 24% | 1022.3 hPa | 0 mm | 7.15 m/s, 338° | - | - |
| 1777524004 | 25.56° C | 24% | 1022.3 hPa | 0 mm | 7.15 m/s, 338° | - | - |
| 1777523403 | 25.56° C | 25% | 1022.4 hPa | 0 mm | 6.71 m/s, 0° | - | - |
* Rain latest hour (hover to see other rain measurements)
** Current wind speed in m/s (hover to see current wind gust speed)